Alcazar de San Juan, Spain
Current Conditions -  °F | °C
As of 11:00 PM on Monday 20 Oct 2014 (Local Time) from LEAO Reporting Station
Clear Clear  
Wind Chill: 16°   Ceiling: Unl
Heat Index: 16°   Visibility: 6mi
Dew Point: 12°   Wind: 0mph
Humidity: 77%   Direction: NA
Pressure: 30.21"   Gusts: NA
Location:  39.39°N, 3.21°W
Report Text: LEAO 202100Z 00000KT CAVOK 16/12 Q1023
Loading
Personal Weather Stations






























Interactive Weather Map
Tropical Storm Tracking
New forecast layout! Learn more

10-Day Weather Forecast

Advertisements
Track Severe Weather on mobile